Time;durP1;ratioP1;P1;durP2;ratioP2;P2;SDS_P1;SDS_P2;PMS_P1;PMS_P2;Temp;Humidity;BMP_temperature;BMP_pressure;BME280_temperature;BME280_humidity;BME280_pressure;Samples;Min_cycle;Max_cycle;Signal;HPM_P1;HPM_P2
2022/05/27 00:00:57;;;;;;;5.47;4.63;;;;;;;;;;5078062;28;20502;-71
2022/05/27 00:03:25;;;;;;;5.47;4.33;;;;;;;;;;5078206;28;20799;-71
2022/05/27 00:05:52;;;;;;;8.53;4.70;;;;;;;;;;5077880;28;20525;-71
2022/05/27 00:08:19;;;;;;;8.07;5.10;;;;;;;;;;5090223;28;20455;-71
2022/05/27 00:10:46;;;;;;;6.87;4.53;;;;;;;;;;5098346;28;20895;-71
2022/05/27 00:13:13;;;;;;;7.10;4.70;;;;;;;;;;5097607;28;20542;-71
2022/05/27 00:15:41;;;;;;;5.40;4.30;;;;;;;;;;5097080;28;20857;-71
2022/05/27 00:18:08;;;;;;;6.33;4.20;;;;;;;;;;5099917;28;20526;-70
2022/05/27 00:20:36;;;;;;;6.20;4.67;;;;;;;;;;5098805;28;20521;-70
2022/05/27 00:23:03;;;;;;;12.03;5.23;;;;;;;;;;5097732;28;20738;-70
2022/05/27 00:25:30;;;;;;;9.27;5.30;;;;;;;;;;5098699;28;20452;-69
2022/05/27 00:27:57;;;;;;;9.60;4.07;;;;;;;;;;5098628;28;20845;-71
2022/05/27 00:30:24;;;;;;;8.03;4.40;;;;;;;;;;5097924;28;20871;-71
2022/05/27 00:32:51;;;;;;;7.00;4.80;;;;;;;;;;5098514;28;20739;-71
2022/05/27 00:35:18;;;;;;;7.87;5.50;;;;;;;;;;5097987;28;20891;-71
2022/05/27 00:37:46;;;;;;;6.20;4.80;;;;;;;;;;5098185;28;20462;-71
2022/05/27 00:40:18;;;;;;;9.07;4.77;;;;;;;;;;5098103;28;20455;-72
2022/05/27 00:42:46;;;;;;;9.90;5.50;;;;;;;;;;5097552;28;20524;-70
2022/05/27 00:45:14;;;;;;;5.10;3.70;;;;;;;;;;5097594;28;20432;-71
2022/05/27 00:47:42;;;;;;;8.40;3.90;;;;;;;;;;5097778;28;20868;-71
2022/05/27 00:50:10;;;;;;;8.97;4.97;;;;;;;;;;5097695;28;20512;-71
2022/05/27 00:52:38;;;;;;;8.47;4.83;;;;;;;;;;5097706;28;20550;-71
2022/05/27 00:55:07;;;;;;;9.33;3.80;;;;;;;;;;5096554;28;20798;-71
2022/05/27 00:57:36;;;;;;;6.90;4.43;;;;;;;;;;5097667;28;20459;-70
2022/05/27 01:00:07;;;;;;;11.23;4.60;;;;;;;;;;5098167;28;20455;-71
2022/05/27 01:02:34;;;;;;;9.03;3.97;;;;;;;;;;5097394;28;20478;-70
2022/05/27 01:05:02;;;;;;;7.83;4.40;;;;;;;;;;5098040;28;20443;-70
2022/05/27 01:07:29;;;;;;;10.23;4.00;;;;;;;;;;5097515;28;20456;-71
2022/05/27 01:09:56;;;;;;;10.40;5.40;;;;;;;;;;5098825;28;20454;-70
2022/05/27 01:12:39;;;;;;;6.33;3.93;;;;;;;;;;5097360;28;20736;-70
2022/05/27 01:15:14;;;;;;;7.63;4.57;;;;;;;;;;5097856;28;20460;-70
2022/05/27 01:17:46;;;;;;;6.70;4.27;;;;;;;;;;5097542;28;20458;-71
2022/05/27 01:20:20;;;;;;;6.80;4.70;;;;;;;;;;5098045;28;20730;-70
2022/05/27 01:23:11;;;;;;;10.67;5.23;;;;;;;;;;5097316;28;20459;-70
2022/05/27 01:25:51;;;;;;;9.00;5.40;;;;;;;;;;5082932;28;20452;-70
2022/05/27 01:28:34;;;;;;;6.87;4.93;;;;;;;;;;5097959;28;20552;-70
2022/05/27 01:31:05;;;;;;;9.50;4.50;;;;;;;;;;5096851;28;20447;-70
2022/05/27 01:33:36;;;;;;;9.27;4.40;;;;;;;;;;5097168;28;20543;-70
2022/05/27 01:36:05;;;;;;;6.10;4.20;;;;;;;;;;5097742;28;20794;-70
2022/05/27 01:38:36;;;;;;;10.87;4.63;;;;;;;;;;5096861;28;20466;-70
2022/05/27 01:41:07;;;;;;;10.80;4.70;;;;;;;;;;5097208;28;20526;-70
2022/05/27 01:43:39;;;;;;;7.73;5.37;;;;;;;;;;5096937;28;20456;-70
2022/05/27 01:46:09;;;;;;;7.90;4.60;;;;;;;;;;5096388;28;20874;-70
2022/05/27 01:48:40;;;;;;;8.63;4.60;;;;;;;;;;5096905;28;20539;-70
2022/05/27 01:51:10;;;;;;;17.97;4.93;;;;;;;;;;5096945;28;20443;-70
2022/05/27 01:53:41;;;;;;;7.53;4.60;;;;;;;;;;5096573;28;20812;-70
2022/05/27 01:56:12;;;;;;;7.40;4.23;;;;;;;;;;5096226;28;20927;-71
2022/05/27 01:58:40;;;;;;;6.70;3.60;;;;;;;;;;5096598;28;20517;-71
2022/05/27 02:01:11;;;;;;;8.20;5.10;;;;;;;;;;5096853;28;20448;-71
2022/05/27 02:03:40;;;;;;;6.50;4.77;;;;;;;;;;5096974;28;20724;-71
2022/05/27 02:06:10;;;;;;;7.53;4.03;;;;;;;;;;5096923;28;20490;-71
2022/05/27 02:08:41;;;;;;;12.40;6.07;;;;;;;;;;5096346;28;20930;-71
2022/05/27 02:11:10;;;;;;;7.67;4.10;;;;;;;;;;5096892;28;20456;-71
2022/05/27 02:13:39;;;;;;;8.90;4.67;;;;;;;;;;5096551;28;20464;-71
2022/05/27 02:16:07;;;;;;;8.50;4.97;;;;;;;;;;5096455;28;20487;-71
2022/05/27 02:18:39;;;;;;;13.50;5.00;;;;;;;;;;5096405;28;20452;-71
2022/05/27 02:21:07;;;;;;;7.13;4.10;;;;;;;;;;5095840;28;20443;-71
2022/05/27 02:23:36;;;;;;;8.90;4.03;;;;;;;;;;5096744;28;20648;-71
2022/05/27 02:26:06;;;;;;;6.47;3.97;;;;;;;;;;5094811;28;20475;-71
2022/05/27 02:28:35;;;;;;;6.00;3.53;;;;;;;;;;5095816;28;20471;-72
2022/05/27 02:31:03;;;;;;;6.17;3.70;;;;;;;;;;5095752;28;20586;-71
2022/05/27 02:36:21;;;;;;;9.20;3.77;;;;;;;;;;5094071;28;20470;-70
2022/05/27 02:38:49;;;;;;;8.03;3.60;;;;;;;;;;5096085;28;20463;-71
2022/05/27 02:41:19;;;;;;;6.93;3.23;;;;;;;;;;5095552;28;20440;-71
2022/05/27 02:43:52;;;;;;;9.20;3.10;;;;;;;;;;5095631;28;20748;-71
2022/05/27 02:46:25;;;;;;;7.80;3.83;;;;;;;;;;5096254;28;20535;-71
2022/05/27 02:48:56;;;;;;;9.30;4.00;;;;;;;;;;5096679;28;20520;-71
2022/05/27 02:51:25;;;;;;;13.63;3.93;;;;;;;;;;5095495;28;21108;-71
2022/05/27 02:53:56;;;;;;;5.33;3.27;;;;;;;;;;5095973;28;20455;-71
2022/05/27 02:56:25;;;;;;;10.67;3.17;;;;;;;;;;5095306;28;20574;-70
2022/05/27 02:58:54;;;;;;;6.67;2.70;;;;;;;;;;5096151;28;20540;-70
2022/05/27 03:01:21;;;;;;;6.77;2.30;;;;;;;;;;5096010;28;20451;-71
2022/05/27 03:03:48;;;;;;;7.20;1.97;;;;;;;;;;5095473;28;20576;-71
2022/05/27 03:06:24;;;;;;;6.80;2.70;;;;;;;;;;5096240;28;20521;-71
2022/05/27 03:08:57;;;;;;;11.23;2.87;;;;;;;;;;5095216;28;20462;-71
2022/05/27 03:11:28;;;;;;;7.93;2.77;;;;;;;;;;5097177;28;20444;-71
2022/05/27 03:14:16;;;;;;;16.83;3.77;;;;;;;;;;5095465;28;20509;-71
2022/05/27 03:16:46;;;;;;;11.20;2.70;;;;;;;;;;5089140;28;20499;-71
2022/05/27 03:19:31;;;;;;;7.27;1.80;;;;;;;;;;5096163;28;20462;-71
2022/05/27 03:22:04;;;;;;;7.67;1.83;;;;;;;;;;5096364;28;20475;-70
2022/05/27 03:24:37;;;;;;;17.23;3.50;;;;;;;;;;5095316;28;20460;-71
2022/05/27 03:27:11;;;;;;;8.87;1.67;;;;;;;;;;5095477;28;20490;-71
2022/05/27 03:29:41;;;;;;;7.13;1.60;;;;;;;;;;5095450;28;20446;-71
2022/05/27 03:32:14;;;;;;;14.10;3.57;;;;;;;;;;5094952;28;20540;-71
2022/05/27 03:34:43;;;;;;;7.67;2.67;;;;;;;;;;5095927;28;20519;-71
2022/05/27 03:37:12;;;;;;;4.90;1.63;;;;;;;;;;5094448;28;20491;-71
2022/05/27 03:39:42;;;;;;;8.07;2.07;;;;;;;;;;5095415;28;21024;-71
2022/05/27 03:42:10;;;;;;;11.40;2.80;;;;;;;;;;5095491;28;21071;-71
2022/05/27 03:44:37;;;;;;;7.87;3.03;;;;;;;;;;5094689;28;20440;-71
2022/05/27 03:47:04;;;;;;;9.60;2.23;;;;;;;;;;5095967;28;20505;-70
2022/05/27 03:49:31;;;;;;;6.87;2.10;;;;;;;;;;5095846;28;20461;-71
2022/05/27 03:52:00;;;;;;;6.57;3.03;;;;;;;;;;5100329;28;20852;-70
2022/05/27 03:54:27;;;;;;;10.13;1.87;;;;;;;;;;5097562;28;20472;-71
2022/05/27 03:56:55;;;;;;;9.90;2.17;;;;;;;;;;5079251;28;20527;-71
2022/05/27 03:59:22;;;;;;;13.60;2.83;;;;;;;;;;5079298;28;20509;-71
2022/05/27 04:01:50;;;;;;;12.07;1.90;;;;;;;;;;5078600;28;20964;-72
2022/05/27 04:04:18;;;;;;;6.93;1.80;;;;;;;;;;5077833;28;20535;-70
2022/05/27 04:06:47;;;;;;;6.60;1.90;;;;;;;;;;5077153;28;20452;-71
2022/05/27 04:09:14;;;;;;;9.17;2.93;;;;;;;;;;5078097;28;20487;-71
2022/05/27 04:11:41;;;;;;;6.43;2.00;;;;;;;;;;5077945;28;20521;-70
2022/05/27 04:14:09;;;;;;;8.77;2.10;;;;;;;;;;5078333;28;20590;-71
2022/05/27 04:16:36;;;;;;;7.87;2.20;;;;;;;;;;5077301;28;20498;-71
2022/05/27 04:19:03;;;;;;;6.37;2.03;;;;;;;;;;5077822;28;20820;-71
2022/05/27 04:21:30;;;;;;;11.40;1.90;;;;;;;;;;5077046;28;20669;-70
2022/05/27 04:23:58;;;;;;;11.03;2.57;;;;;;;;;;5077118;28;20467;-70
2022/05/27 04:26:25;;;;;;;12.13;2.50;;;;;;;;;;5078369;28;20476;-70
2022/05/27 04:28:52;;;;;;;7.73;1.70;;;;;;;;;;5076353;28;20456;-70
2022/05/27 04:31:26;;;;;;;8.80;2.10;;;;;;;;;;5076941;28;20485;-70
2022/05/27 04:33:53;;;;;;;6.97;1.57;;;;;;;;;;5077728;28;20499;-71
2022/05/27 04:36:20;;;;;;;9.70;2.03;;;;;;;;;;5076565;28;20587;-71
2022/05/27 04:38:47;;;;;;;7.23;1.97;;;;;;;;;;5076861;28;21034;-71
2022/05/27 04:41:14;;;;;;;10.97;1.90;;;;;;;;;;5077039;28;20464;-71
2022/05/27 04:43:41;;;;;;;12.30;1.73;;;;;;;;;;5078003;28;20449;-71
2022/05/27 04:46:08;;;;;;;8.70;1.67;;;;;;;;;;5077535;28;20449;-71
2022/05/27 04:48:35;;;;;;;6.50;2.00;;;;;;;;;;5076696;28;20809;-71
2022/05/27 04:51:02;;;;;;;14.37;2.10;;;;;;;;;;5077193;28;20482;-70
2022/05/27 04:53:29;;;;;;;10.33;2.00;;;;;;;;;;5077253;28;20461;-71
2022/05/27 04:55:56;;;;;;;6.40;1.80;;;;;;;;;;5077344;28;20485;-71
2022/05/27 04:58:27;;;;;;;5.07;1.60;;;;;;;;;;5076712;28;20453;-71
2022/05/27 05:00:54;;;;;;;4.60;1.50;;;;;;;;;;5077243;28;20445;-71
2022/05/27 05:03:20;;;;;;;13.67;2.47;;;;;;;;;;5076940;28;20456;-71
2022/05/27 05:05:48;;;;;;;10.00;2.13;;;;;;;;;;5076090;28;20452;-71
2022/05/27 05:08:19;;;;;;;7.80;1.67;;;;;;;;;;5077355;28;20558;-72
2022/05/27 05:10:46;;;;;;;7.63;1.70;;;;;;;;;;5074434;28;20443;-71
2022/05/27 05:13:19;;;;;;;8.50;1.67;;;;;;;;;;5089816;28;20877;-71
2022/05/27 05:15:46;;;;;;;5.10;1.63;;;;;;;;;;5076868;28;20495;-69
2022/05/27 05:18:14;;;;;;;4.87;1.97;;;;;;;;;;5086005;28;20816;-70
2022/05/27 05:20:41;;;;;;;4.97;1.33;;;;;;;;;;5087140;28;20911;-71
2022/05/27 05:23:08;;;;;;;10.00;2.23;;;;;;;;;;5076556;28;20471;-71
2022/05/27 05:25:35;;;;;;;5.83;1.67;;;;;;;;;;5075945;28;20467;-71
2022/05/27 05:28:02;;;;;;;10.20;1.50;;;;;;;;;;5075964;28;20875;-71
2022/05/27 05:30:29;;;;;;;6.00;1.57;;;;;;;;;;5074701;28;20448;-71
2022/05/27 05:32:56;;;;;;;6.10;1.47;;;;;;;;;;5075711;28;20456;-70
2022/05/27 05:35:24;;;;;;;7.70;2.33;;;;;;;;;;5076656;28;20451;-70
2022/05/27 05:37:51;;;;;;;6.30;1.70;;;;;;;;;;5075720;28;20468;-71
2022/05/27 05:40:19;;;;;;;7.00;1.43;;;;;;;;;;5084349;28;20447;-70
2022/05/27 05:42:47;;;;;;;7.57;1.80;;;;;;;;;;5093051;28;20468;-71
2022/05/27 05:45:15;;;;;;;4.63;1.43;;;;;;;;;;5095935;28;20451;-70
2022/05/27 05:47:42;;;;;;;9.83;2.60;;;;;;;;;;5096613;28;20493;-69
2022/05/27 05:50:10;;;;;;;4.97;1.37;;;;;;;;;;5096401;28;20860;-69
2022/05/27 05:52:37;;;;;;;10.70;1.97;;;;;;;;;;5096665;28;20455;-70
2022/05/27 05:55:04;;;;;;;9.93;1.67;;;;;;;;;;5096662;28;20455;-71
2022/05/27 05:57:32;;;;;;;8.53;2.00;;;;;;;;;;5096577;28;20491;-70
2022/05/27 06:00:00;;;;;;;5.23;1.23;;;;;;;;;;5095964;28;20471;-70
2022/05/27 06:02:27;;;;;;;4.77;1.73;;;;;;;;;;5097057;28;20463;-71
2022/05/27 06:04:56;;;;;;;8.63;2.20;;;;;;;;;;5095803;28;20527;-70
2022/05/27 06:07:26;;;;;;;7.10;1.10;;;;;;;;;;5096495;28;20478;-70
2022/05/27 06:09:56;;;;;;;17.03;2.30;;;;;;;;;;5094656;28;20448;-71
2022/05/27 06:12:24;;;;;;;11.13;2.20;;;;;;;;;;5095947;28;20856;-70
2022/05/27 06:14:53;;;;;;;9.73;2.13;;;;;;;;;;5094749;28;20453;-70
2022/05/27 06:17:20;;;;;;;8.57;2.10;;;;;;;;;;5095656;28;20507;-71
2022/05/27 06:19:49;;;;;;;5.93;1.43;;;;;;;;;;5084947;28;20452;-72
2022/05/27 06:22:17;;;;;;;9.07;1.80;;;;;;;;;;5075681;28;20484;-71
2022/05/27 06:24:45;;;;;;;6.70;1.80;;;;;;;;;;5075335;28;20448;-70
2022/05/27 06:27:12;;;;;;;4.70;1.23;;;;;;;;;;5075986;28;20941;-70
2022/05/27 06:35:10;;;;;;;9.40;1.70;;;;;;;;;;5074372;28;20440;-70
2022/05/27 06:37:37;;;;;;;8.73;1.80;;;;;;;;;;5074741;28;20524;-70
2022/05/27 06:40:07;;;;;;;8.13;2.43;;;;;;;;;;5074570;28;20449;-70
2022/05/27 06:42:36;;;;;;;4.80;1.40;;;;;;;;;;5075290;28;20465;-70
2022/05/27 06:45:12;;;;;;;11.03;2.83;;;;;;;;;;5074496;28;20452;-70
2022/05/27 06:47:39;;;;;;;4.70;1.63;;;;;;;;;;5083153;28;20554;-70
2022/05/27 06:50:07;;;;;;;4.37;1.10;;;;;;;;;;5094844;28;20535;-70
2022/05/27 06:52:35;;;;;;;9.60;1.47;;;;;;;;;;5094699;28;20458;-69
2022/05/27 06:55:02;;;;;;;7.63;1.73;;;;;;;;;;5094631;28;21114;-70
2022/05/27 06:57:29;;;;;;;6.00;1.60;;;;;;;;;;5095077;28;20552;-71
2022/05/27 06:59:56;;;;;;;4.00;1.40;;;;;;;;;;5094800;28;20491;-71
2022/05/27 07:02:26;;;;;;;8.63;1.63;;;;;;;;;;5092066;28;20892;-71
2022/05/27 07:04:55;;;;;;;5.43;1.40;;;;;;;;;;5094473;28;20863;-71
2022/05/27 07:07:23;;;;;;;5.40;1.50;;;;;;;;;;5093581;28;20439;-70
2022/05/27 07:09:53;;;;;;;6.93;1.57;;;;;;;;;;5094406;28;20451;-71
2022/05/27 07:12:21;;;;;;;4.40;1.30;;;;;;;;;;5094590;28;20450;-70
2022/05/27 07:14:58;;;;;;;4.03;1.17;;;;;;;;;;5094839;28;20722;-70
2022/05/27 07:17:30;;;;;;;6.10;2.17;;;;;;;;;;5094004;28;20566;-70
2022/05/27 07:19:59;;;;;;;5.23;1.50;;;;;;;;;;5094633;28;20808;-70
2022/05/27 07:22:27;;;;;;;3.63;1.57;;;;;;;;;;5087780;28;20547;-72
2022/05/27 07:25:01;;;;;;;4.73;1.37;;;;;;;;;;5092768;28;20456;-71
2022/05/27 07:27:30;;;;;;;4.00;1.70;;;;;;;;;;5094620;28;20455;-70
2022/05/27 07:29:58;;;;;;;3.43;1.10;;;;;;;;;;5096955;28;20472;-72
2022/05/27 07:32:25;;;;;;;6.80;1.50;;;;;;;;;;5098023;28;20452;-72
2022/05/27 07:34:52;;;;;;;5.57;1.30;;;;;;;;;;5097717;27;20443;-70
2022/05/27 07:37:19;;;;;;;5.40;1.50;;;;;;;;;;5097443;28;20482;-70
2022/05/27 07:39:47;;;;;;;3.57;1.33;;;;;;;;;;5096784;28;20464;-69
2022/05/27 07:42:14;;;;;;;8.67;2.00;;;;;;;;;;5096199;28;20454;-70
2022/05/27 07:44:43;;;;;;;8.00;1.60;;;;;;;;;;5097036;28;20448;-70
2022/05/27 07:47:10;;;;;;;7.43;1.50;;;;;;;;;;5097731;28;20460;-70
2022/05/27 07:49:37;;;;;;;6.23;2.97;;;;;;;;;;5097354;28;20827;-70
2022/05/27 07:52:05;;;;;;;7.10;1.80;;;;;;;;;;5096848;28;20872;-69
2022/05/27 07:54:33;;;;;;;5.17;1.43;;;;;;;;;;5097018;28;20451;-70
2022/05/27 07:57:00;;;;;;;4.27;1.37;;;;;;;;;;5097049;28;20478;-70
2022/05/27 07:59:28;;;;;;;3.60;1.13;;;;;;;;;;5097693;28;20771;-69
2022/05/27 08:01:55;;;;;;;6.23;1.30;;;;;;;;;;5093797;28;20519;-69
2022/05/27 08:04:22;;;;;;;6.10;1.40;;;;;;;;;;5097113;28;20452;-69
2022/05/27 08:06:49;;;;;;;3.77;1.03;;;;;;;;;;5097455;28;20467;-69
2022/05/27 08:09:19;;;;;;;5.87;1.87;;;;;;;;;;5096469;28;20475;-69
2022/05/27 08:11:47;;;;;;;8.87;2.13;;;;;;;;;;5082547;28;20468;-69
2022/05/27 08:14:16;;;;;;;3.47;1.27;;;;;;;;;;5076262;28;20456;-70
2022/05/27 08:16:44;;;;;;;6.50;1.30;;;;;;;;;;5093003;28;20532;-71
2022/05/27 08:19:21;;;;;;;8.53;1.73;;;;;;;;;;5105451;28;20447;-71
2022/05/27 08:21:51;;;;;;;4.40;1.07;;;;;;;;;;5090274;28;20619;-70
2022/05/27 08:24:30;;;;;;;2.80;1.20;;;;;;;;;;5091812;28;20504;-71
2022/05/27 08:26:58;;;;;;;8.37;2.23;;;;;;;;;;5083124;28;20471;-71
2022/05/27 08:29:25;;;;;;;5.20;1.80;;;;;;;;;;5093294;28;20470;-69
2022/05/27 08:31:53;;;;;;;4.93;1.30;;;;;;;;;;5089489;28;20466;-71
2022/05/27 08:39:51;;;;;;;3.80;1.63;;;;;;;;;;5078150;28;20724;-70
2022/05/27 08:42:33;;;;;;;4.47;1.17;;;;;;;;;;5096340;28;20466;-71
2022/05/27 08:45:04;;;;;;;5.00;1.30;;;;;;;;;;5092501;28;20485;-71
2022/05/27 08:47:39;;;;;;;8.07;1.40;;;;;;;;;;5092980;28;20479;-72
2022/05/27 08:50:11;;;;;;;7.60;1.80;;;;;;;;;;5094353;28;20519;-68
2022/05/27 08:52:44;;;;;;;5.87;1.60;;;;;;;;;;5087219;28;20463;-72
2022/05/27 09:00:45;;;;;;;5.10;1.53;;;;;;;;;;5095197;28;20451;-71
2022/05/27 09:03:12;;;;;;;7.93;2.07;;;;;;;;;;5095880;28;20533;-70
2022/05/27 09:05:42;;;;;;;4.60;1.53;;;;;;;;;;5096143;28;20577;-72
2022/05/27 09:08:12;;;;;;;3.53;1.10;;;;;;;;;;5096127;28;20733;-71
2022/05/27 09:10:46;;;;;;;5.40;1.40;;;;;;;;;;5104464;28;20457;-71
2022/05/27 09:13:17;;;;;;;4.07;1.60;;;;;;;;;;5100578;27;20466;-72
2022/05/27 09:15:48;;;;;;;5.37;1.80;;;;;;;;;;5099702;28;20475;-71
2022/05/27 09:18:25;;;;;;;5.90;1.30;;;;;;;;;;5094406;28;20906;-71
2022/05/27 09:20:57;;;;;;;3.83;1.27;;;;;;;;;;5094614;28;20455;-71
2022/05/27 09:23:32;;;;;;;7.97;3.00;;;;;;;;;;5096149;28;20483;-72
2022/05/27 09:26:02;;;;;;;5.67;2.00;;;;;;;;;;5096239;28;20471;-71
2022/05/27 09:28:39;;;;;;;5.50;1.70;;;;;;;;;;5096395;28;20455;-71
2022/05/27 09:31:10;;;;;;;5.57;1.97;;;;;;;;;;5096927;28;20516;-70
2022/05/27 09:33:38;;;;;;;5.70;1.57;;;;;;;;;;5093990;28;20843;-70
2022/05/27 09:36:07;;;;;;;4.50;1.50;;;;;;;;;;5095932;28;20486;-72
2022/05/27 09:38:36;;;;;;;7.80;2.10;;;;;;;;;;5095944;28;20471;-71
2022/05/27 09:41:04;;;;;;;5.90;1.50;;;;;;;;;;5084450;28;20450;-70
2022/05/27 09:43:37;;;;;;;4.90;1.83;;;;;;;;;;5095913;28;20455;-72
2022/05/27 09:46:06;;;;;;;9.83;1.73;;;;;;;;;;5096230;28;20452;-74
2022/05/27 09:48:36;;;;;;;6.67;1.70;;;;;;;;;;5095977;28;20464;-73
2022/05/27 09:51:08;;;;;;;7.90;1.90;;;;;;;;;;5094762;28;20443;-73
2022/05/27 09:53:39;;;;;;;5.20;2.33;;;;;;;;;;5081015;28;20555;-72
2022/05/27 09:56:08;;;;;;;7.67;1.70;;;;;;;;;;5094728;28;20564;-73
2022/05/27 09:58:47;;;;;;;7.30;1.90;;;;;;;;;;5095073;28;20459;-73
2022/05/27 10:01:23;;;;;;;6.60;1.97;;;;;;;;;;5094495;28;20508;-73
2022/05/27 10:04:00;;;;;;;5.30;1.73;;;;;;;;;;5093607;28;20472;-74
2022/05/27 10:06:44;;;;;;;3.60;1.63;;;;;;;;;;5088435;28;20542;-72
2022/05/27 10:09:29;;;;;;;7.47;1.60;;;;;;;;;;5104385;28;20856;-73
2022/05/27 10:12:03;;;;;;;6.97;1.63;;;;;;;;;;5099956;27;21449;-72
2022/05/27 10:14:37;;;;;;;6.13;2.10;;;;;;;;;;5081756;27;20562;-72
2022/05/27 10:17:11;;;;;;;7.10;2.50;;;;;;;;;;5094566;28;20521;-72
2022/05/27 10:19:40;;;;;;;7.07;1.73;;;;;;;;;;5095025;28;20893;-74
2022/05/27 10:22:12;;;;;;;5.30;1.80;;;;;;;;;;5095720;28;20466;-73
2022/05/27 10:24:41;;;;;;;4.10;1.57;;;;;;;;;;5094853;28;20519;-72
2022/05/27 10:27:10;;;;;;;12.73;2.20;;;;;;;;;;5095287;27;20475;-72
2022/05/27 10:29:52;;;;;;;6.00;1.80;;;;;;;;;;5093469;28;20447;-74
2022/05/27 10:32:40;;;;;;;7.40;2.27;;;;;;;;;;5085090;28;21236;-73
2022/05/27 10:35:30;;;;;;;8.53;2.57;;;;;;;;;;5085982;28;20512;-72
2022/05/27 10:38:10;;;;;;;8.60;1.87;;;;;;;;;;5091919;28;20480;-72
2022/05/27 10:40:56;;;;;;;8.00;1.60;;;;;;;;;;5077224;28;20892;-73
2022/05/27 10:43:54;;;;;;;7.20;1.97;;;;;;;;;;5072427;28;20472;-73
2022/05/27 10:46:51;;;;;;;4.03;1.80;;;;;;;;;;5072443;28;20455;-73
2022/05/27 10:49:49;;;;;;;5.23;1.70;;;;;;;;;;5072549;28;20861;-73
2022/05/27 10:52:30;;;;;;;3.60;1.37;;;;;;;;;;5071787;28;20473;-72
2022/05/27 10:55:22;;;;;;;3.80;1.60;;;;;;;;;;5090824;28;20495;-72
2022/05/27 11:04:13;;;;;;;8.00;1.83;;;;;;;;;;5093191;28;20443;-72
2022/05/27 11:09:41;;;;;;;5.77;1.23;;;;;;;;;;5088630;28;20824;-71
2022/05/27 11:12:21;;;;;;;11.90;1.93;;;;;;;;;;5091918;28;20455;-72
2022/05/27 11:15:11;;;;;;;6.27;1.80;;;;;;;;;;5082787;28;20558;-72
2022/05/27 11:17:49;;;;;;;3.37;1.10;;;;;;;;;;5074103;28;20486;-71
2022/05/27 11:20:24;;;;;;;8.30;1.57;;;;;;;;;;5072854;28;20861;-71
2022/05/27 11:23:03;;;;;;;4.93;1.10;;;;;;;;;;5086020;28;20898;-71
2022/05/27 11:25:53;;;;;;;7.63;2.27;;;;;;;;;;5089833;28;21484;-73
2022/05/27 11:28:35;;;;;;;5.70;1.30;;;;;;;;;;5086196;28;20535;-71
2022/05/27 11:31:11;;;;;;;4.63;1.50;;;;;;;;;;5093733;28;20490;-72
2022/05/27 11:33:57;;;;;;;5.30;1.20;;;;;;;;;;5080830;28;20467;-72
2022/05/27 11:36:41;;;;;;;5.40;1.60;;;;;;;;;;5091335;28;20522;-73
2022/05/27 11:39:36;;;;;;;4.50;1.40;;;;;;;;;;5088806;28;20543;-73
2022/05/27 11:42:33;;;;;;;4.97;1.23;;;;;;;;;;5092650;28;20471;-73
2022/05/27 11:45:26;;;;;;;4.73;1.63;;;;;;;;;;5093803;28;20755;-73
2022/05/27 11:48:10;;;;;;;8.53;2.10;;;;;;;;;;5093653;28;20462;-72
2022/05/27 11:50:53;;;;;;;8.23;1.80;;;;;;;;;;5080495;28;20464;-71
2022/05/27 11:53:47;;;;;;;8.73;1.57;;;;;;;;;;5070830;28;20468;-71
2022/05/27 11:56:17;;;;;;;8.03;1.40;;;;;;;;;;5099049;27;20481;-72
2022/05/27 11:58:49;;;;;;;9.33;1.67;;;;;;;;;;5113653;27;20766;-71
2022/05/27 12:01:27;;;;;;;5.00;1.27;;;;;;;;;;5094263;28;20474;-73
2022/05/27 12:04:05;;;;;;;4.40;1.17;;;;;;;;;;5094190;28;20531;-71
2022/05/27 12:06:36;;;;;;;3.83;1.00;;;;;;;;;;5093303;28;20440;-72
2022/05/27 12:09:09;;;;;;;4.70;1.73;;;;;;;;;;5094883;28;20882;-71
2022/05/27 12:11:38;;;;;;;6.00;1.70;;;;;;;;;;5098191;28;20458;-71
2022/05/27 12:14:19;;;;;;;5.53;2.10;;;;;;;;;;5097056;28;20457;-72
2022/05/27 12:16:49;;;;;;;9.73;2.07;;;;;;;;;;5095678;28;20581;-71
2022/05/27 12:19:41;;;;;;;4.27;1.20;;;;;;;;;;5097258;28;20451;-72
2022/05/27 12:22:54;;;;;;;3.60;1.30;;;;;;;;;;5089780;28;20464;-73
2022/05/27 12:25:29;;;;;;;5.87;1.63;;;;;;;;;;5016103;28;20457;-71
2022/05/27 12:27:57;;;;;;;7.33;1.90;;;;;;;;;;5012693;28;20468;-71
2022/05/27 12:30:28;;;;;;;7.53;1.73;;;;;;;;;;5012482;28;20470;-71
2022/05/27 12:33:03;;;;;;;4.00;1.53;;;;;;;;;;5036171;28;20456;-73
2022/05/27 12:35:44;;;;;;;10.50;2.27;;;;;;;;;;5095044;28;20456;-72
2022/05/27 12:38:27;;;;;;;4.90;1.80;;;;;;;;;;5089758;28;20582;-72
2022/05/27 12:41:07;;;;;;;6.73;1.63;;;;;;;;;;5089508;28;20452;-72
2022/05/27 12:43:38;;;;;;;10.83;2.23;;;;;;;;;;5086106;28;20453;-72
2022/05/27 12:46:37;;;;;;;5.23;1.80;;;;;;;;;;5092615;28;20536;-73
2022/05/27 12:49:23;;;;;;;5.33;1.30;;;;;;;;;;5093739;28;20876;-73
2022/05/27 12:51:50;;;;;;;6.73;1.77;;;;;;;;;;5095649;28;20455;-74
2022/05/27 12:54:45;;;;;;;5.33;1.40;;;;;;;;;;5096200;28;20448;-72
2022/05/27 13:03:48;;;;;;;4.37;1.70;;;;;;;;;;5074555;28;20578;-72
2022/05/27 13:06:35;;;;;;;8.93;3.07;;;;;;;;;;5095109;28;20491;-71
2022/05/27 13:09:07;;;;;;;6.07;1.80;;;;;;;;;;5095399;28;20506;-71
2022/05/27 13:11:46;;;;;;;8.10;1.20;;;;;;;;;;5095306;28;20542;-71
2022/05/27 13:14:20;;;;;;;4.57;1.00;;;;;;;;;;5095794;28;20543;-72
2022/05/27 13:16:49;;;;;;;7.83;1.30;;;;;;;;;;5096207;28;20490;-71
2022/05/27 13:19:36;;;;;;;4.87;1.37;;;;;;;;;;5093870;28;20436;-71
2022/05/27 13:22:11;;;;;;;4.13;1.00;;;;;;;;;;5093324;28;20851;-70
2022/05/27 13:24:46;;;;;;;6.67;1.00;;;;;;;;;;5091163;27;20934;-71
2022/05/27 13:27:34;;;;;;;4.63;1.40;;;;;;;;;;5093347;28;20439;-71
2022/05/27 13:30:17;;;;;;;10.13;1.50;;;;;;;;;;5093027;28;20777;-71
2022/05/27 13:33:00;;;;;;;6.53;1.20;;;;;;;;;;5094334;28;20443;-71
2022/05/27 13:35:42;;;;;;;5.13;1.40;;;;;;;;;;5095433;28;20460;-71
2022/05/27 13:38:13;;;;;;;6.97;1.77;;;;;;;;;;5095207;28;20795;-71
2022/05/27 13:40:40;;;;;;;7.13;2.00;;;;;;;;;;5094651;28;20528;-71
2022/05/27 13:43:09;;;;;;;7.70;1.77;;;;;;;;;;5095024;28;20455;-71
2022/05/27 13:45:44;;;;;;;5.93;1.23;;;;;;;;;;5095509;28;20716;-71
2022/05/27 13:48:24;;;;;;;4.50;1.30;;;;;;;;;;5074127;28;20448;-72
2022/05/27 13:51:04;;;;;;;8.00;2.07;;;;;;;;;;5074237;28;20455;-72
2022/05/27 13:53:35;;;;;;;7.50;1.30;;;;;;;;;;5074819;28;20451;-70
2022/05/27 13:56:08;;;;;;;5.27;1.90;;;;;;;;;;5094253;28;21063;-71
2022/05/27 13:58:37;;;;;;;7.43;1.53;;;;;;;;;;5094901;28;20518;-70
2022/05/27 14:01:06;;;;;;;5.37;1.80;;;;;;;;;;5092696;28;20954;-71
2022/05/27 14:03:41;;;;;;;5.90;1.37;;;;;;;;;;5102961;28;20569;-71
2022/05/27 14:06:09;;;;;;;5.57;1.70;;;;;;;;;;5115986;27;20510;-70
2022/05/27 14:08:42;;;;;;;6.90;2.47;;;;;;;;;;5084449;27;20549;-72
2022/05/27 14:11:18;;;;;;;8.57;1.80;;;;;;;;;;5093310;28;20470;-71
2022/05/27 14:13:50;;;;;;;5.00;1.40;;;;;;;;;;5087498;28;20443;-71
2022/05/27 14:16:24;;;;;;;5.20;1.70;;;;;;;;;;5100540;28;20466;-71
2022/05/27 14:19:00;;;;;;;4.10;1.40;;;;;;;;;;5107224;27;20849;-71
2022/05/27 14:24:31;;;;;;;6.03;1.80;;;;;;;;;;5103844;27;20769;-72
2022/05/27 14:26:59;;;;;;;3.33;1.17;;;;;;;;;;5074397;28;20455;-72
2022/05/27 14:29:26;;;;;;;3.43;1.83;;;;;;;;;;5094155;28;20455;-71
2022/05/27 14:34:43;;;;;;;6.03;1.30;;;;;;;;;;5092018;28;20743;-72
2022/05/27 14:37:18;;;;;;;2.67;0.80;;;;;;;;;;5094717;28;20811;-72
2022/05/27 14:39:46;;;;;;;4.80;1.00;;;;;;;;;;5094653;28;20467;-71
2022/05/27 14:42:16;;;;;;;7.07;2.00;;;;;;;;;;5090639;28;20525;-71
2022/05/27 14:44:44;;;;;;;3.67;1.10;;;;;;;;;;5074475;28;20551;-70
2022/05/27 14:47:12;;;;;;;6.50;1.37;;;;;;;;;;5074046;28;20857;-71
2022/05/27 14:49:47;;;;;;;7.17;1.90;;;;;;;;;;5074373;28;20512;-71
2022/05/27 14:52:19;;;;;;;9.53;2.03;;;;;;;;;;5073781;28;20513;-71
2022/05/27 14:54:47;;;;;;;7.00;2.43;;;;;;;;;;5089717;28;20864;-70
2022/05/27 14:57:21;;;;;;;5.87;1.53;;;;;;;;;;5093408;28;20585;-70
2022/05/27 14:59:55;;;;;;;11.60;2.33;;;;;;;;;;5090844;28;20452;-71
2022/05/27 15:02:26;;;;;;;5.83;1.33;;;;;;;;;;5092607;28;21038;-71
2022/05/27 15:05:05;;;;;;;4.80;2.17;;;;;;;;;;5075058;28;20448;-73
2022/05/27 15:07:48;;;;;;;5.27;1.60;;;;;;;;;;5087752;28;20459;-72
2022/05/27 15:10:22;;;;;;;8.40;1.87;;;;;;;;;;5092498;28;20455;-70
2022/05/27 15:15:53;;;;;;;4.67;1.10;;;;;;;;;;5072426;28;20490;-73
2022/05/27 15:18:22;;;;;;;7.63;1.60;;;;;;;;;;5072928;28;20545;-71
2022/05/27 15:20:56;;;;;;;4.80;1.73;;;;;;;;;;5076811;28;20464;-71
2022/05/27 15:23:26;;;;;;;5.63;1.60;;;;;;;;;;5091870;28;20475;-71
2022/05/27 15:34:27;;;;;;;7.83;2.10;;;;;;;;;;5091648;28;20442;-70
2022/05/27 15:37:06;;;;;;;7.03;1.67;;;;;;;;;;5093665;28;20577;-71
2022/05/27 15:39:38;;;;;;;7.77;2.00;;;;;;;;;;5089021;28;20468;-70
2022/05/27 15:42:06;;;;;;;7.40;1.30;;;;;;;;;;5089445;28;20447;-71
2022/05/27 15:44:35;;;;;;;8.67;2.70;;;;;;;;;;5095429;28;20456;-71
2022/05/27 15:47:03;;;;;;;4.93;1.10;;;;;;;;;;5096473;28;20492;-71
2022/05/27 15:49:32;;;;;;;7.93;1.87;;;;;;;;;;5092736;27;21052;-70
2022/05/27 15:54:49;;;;;;;7.00;1.20;;;;;;;;;;5091031;28;20472;-72
2022/05/27 15:57:17;;;;;;;7.70;1.30;;;;;;;;;;5076053;28;20495;-70
2022/05/27 15:59:44;;;;;;;6.43;1.57;;;;;;;;;;5098758;28;20474;-72
2022/05/27 16:02:12;;;;;;;3.13;1.00;;;;;;;;;;5117595;27;20515;-72
2022/05/27 16:04:42;;;;;;;5.63;1.40;;;;;;;;;;5105005;27;20887;-72